Time;durP1;ratioP1;P1;durP2;ratioP2;P2;SDS_P1;SDS_P2;PMS_P1;PMS_P2;Temp;Humidity;BMP_temperature;BMP_pressure;BME280_temperature;BME280_humidity;BME280_pressure;Samples;Min_cycle;Max_cycle;Signal;HPM_P1;HPM_P2
2022/01/14 00:00:14;;;;;;;;;;;21.40;49.00;;;;;;697140;28;860;-89
2022/01/14 00:00:35;;;;;;;;;;;21.40;49.00;;;;;;697554;28;954;-81
2022/01/14 00:00:55;;;;;;;;;;;21.40;49.00;;;;;;700040;28;890;-94
2022/01/14 00:01:16;;;;;;;;;;;21.40;49.00;;;;;;700098;28;885;-87
2022/01/14 00:01:37;;;;;;;;;;;21.40;49.00;;;;;;699938;28;865;-89
2022/01/14 00:01:58;;;;;;;;;;;21.40;49.10;;;;;;700040;28;869;-95
2022/01/14 00:02:18;;;;;;;;;;;21.40;49.10;;;;;;700183;28;869;-95
2022/01/14 00:02:39;;;;;;;;;;;21.40;49.10;;;;;;700178;28;925;-96
2022/01/14 00:03:00;;;;;;;;;;;21.40;49.10;;;;;;697011;28;857;-81
2022/01/14 00:03:21;;;;;;;;;;;21.40;49.10;;;;;;697142;28;841;-95
2022/01/14 00:03:46;;;;;;;;;;;21.40;49.10;;;;;;697162;28;960;-91
2022/01/14 00:04:10;;;;;;;;;;;21.40;49.10;;;;;;697527;28;814;-95
2022/01/14 00:04:30;;;;;;;;;;;21.40;49.10;;;;;;694465;28;881;-89
2022/01/14 00:04:51;;;;;;;;;;;21.40;49.10;;;;;;696150;28;837;-95
2022/01/14 00:05:12;;;;;;;;;;;21.40;49.10;;;;;;694830;28;889;-96
2022/01/14 00:05:34;;;;;;;;;;;21.40;49.10;;;;;;694844;28;929;-93
2022/01/14 00:05:54;;;;;;;;;;;21.40;49.10;;;;;;695806;28;1007;-96
2022/01/14 00:06:15;;;;;;;;;;;21.40;49.20;;;;;;694938;28;889;-86
2022/01/14 00:06:37;;;;;;;;;;;21.40;49.20;;;;;;697025;28;926;-87
2022/01/14 00:06:58;;;;;;;;;;;21.40;49.10;;;;;;697962;28;856;-96
2022/01/14 00:07:18;;;;;;;;;;;21.40;49.10;;;;;;700225;28;875;-86
2022/01/14 00:07:39;;;;;;;;;;;21.40;49.10;;;;;;700186;28;983;-93
2022/01/14 00:08:25;;;;;;;;;;;21.40;49.20;;;;;;697386;28;1004;-86
2022/01/14 00:08:46;;;;;;;;;;;21.40;49.20;;;;;;686584;29;1318;-82
2022/01/14 00:09:09;;;;;;;;;;;21.40;49.20;;;;;;683295;29;1412;-82
2022/01/14 00:09:31;;;;;;;;;;;21.40;49.20;;;;;;682818;29;1054;-80
2022/01/14 00:09:53;;;;;;;;;;;21.40;49.30;;;;;;685442;29;846;-86
2022/01/14 00:10:14;;;;;;;;;;;21.40;49.30;;;;;;686443;29;835;-81
2022/01/14 00:10:36;;;;;;;;;;;21.40;49.30;;;;;;687714;28;977;-77
2022/01/14 00:11:00;;;;;;;;;;;21.40;49.30;;;;;;690601;28;893;-83
2022/01/14 00:11:21;;;;;;;;;;;21.40;49.40;;;;;;688014;28;1368;-78
2022/01/14 00:11:55;;;;;;;;;;;21.40;49.30;;;;;;688433;28;1003;-79
2022/01/14 00:12:23;;;;;;;;;;;21.40;49.40;;;;;;689153;28;908;-79
2022/01/14 00:12:52;;;;;;;;;;;21.40;49.40;;;;;;689624;28;961;-79
2022/01/14 00:13:37;;;;;;;;;;;21.40;49.40;;;;;;690749;28;961;-78
2022/01/14 00:17:23;;;;;;;;;;;21.40;49.40;;;;;;691240;28;664;-96
2022/01/14 00:17:44;;;;;;;;;;;21.40;49.40;;;;;;691849;28;1179;-78
2022/01/14 00:18:04;;;;;;;;;;;21.40;49.30;;;;;;688847;28;1935;-81
2022/01/14 00:18:25;;;;;;;;;;;21.40;49.40;;;;;;689419;28;842;-81
2022/01/14 00:18:46;;;;;;;;;;;21.40;49.50;;;;;;688908;28;933;-79
2022/01/14 00:19:06;;;;;;;;;;;21.40;49.50;;;;;;687824;28;807;-79
2022/01/14 00:19:27;;;;;;;;;;;21.40;50.50;;;;;;688912;28;1044;-82
2022/01/14 00:19:48;;;;;;;;;;;21.40;49.40;;;;;;689773;28;1008;-79
2022/01/14 00:20:09;;;;;;;;;;;21.40;49.50;;;;;;692114;28;826;-79
2022/01/14 00:20:29;;;;;;;;;;;21.40;49.50;;;;;;691170;28;779;-92
2022/01/14 00:20:50;;;;;;;;;;;21.30;49.40;;;;;;691178;28;1010;-95
2022/01/14 00:21:10;;;;;;;;;;;21.30;49.40;;;;;;691753;28;901;-94
2022/01/14 00:21:34;;;;;;;;;;;21.30;49.40;;;;;;692417;28;997;-92
2022/01/14 00:21:54;;;;;;;;;;;21.30;49.50;;;;;;691216;28;862;-81
2022/01/14 00:22:17;;;;;;;;;;;21.30;49.60;;;;;;689727;28;913;-85
2022/01/14 00:22:37;;;;;;;;;;;21.40;49.60;;;;;;688353;28;890;-92
2022/01/14 00:22:59;;;;;;;;;;;21.30;49.50;;;;;;688937;28;900;-87
2022/01/14 00:23:27;;;;;;;;;;;21.30;49.50;;;;;;688919;28;946;-93
2022/01/14 00:23:51;;;;;;;;;;;21.30;49.50;;;;;;688820;28;850;-89
2022/01/14 00:31:58;;;;;;;;;;;21.30;49.60;;;;;;688620;28;593;-81
2022/01/14 00:33:02;;;;;;;;;;;21.30;49.80;;;;;;688702;28;897;-84
2022/01/14 00:33:22;;;;;;;;;;;21.30;49.70;;;;;;688800;28;901;-89
2022/01/14 00:33:43;;;;;;;;;;;21.30;49.70;;;;;;688779;28;1115;-93
2022/01/14 00:34:04;;;;;;;;;;;21.30;49.60;;;;;;688661;28;925;-93
2022/01/14 00:34:25;;;;;;;;;;;21.30;49.70;;;;;;688859;28;851;-82
2022/01/14 00:34:45;;;;;;;;;;;21.30;49.70;;;;;;688634;28;807;-82
2022/01/14 00:35:06;;;;;;;;;;;21.30;49.60;;;;;;688756;28;858;-90
2022/01/14 00:35:27;;;;;;;;;;;21.30;49.60;;;;;;688752;28;830;-95
2022/01/14 00:35:47;;;;;;;;;;;21.30;49.60;;;;;;688580;28;867;-94
2022/01/14 00:36:08;;;;;;;;;;;21.30;49.60;;;;;;688691;28;811;-93
2022/01/14 00:36:28;;;;;;;;;;;21.30;49.60;;;;;;688621;28;875;-86
2022/01/14 00:36:49;;;;;;;;;;;21.30;49.60;;;;;;688745;28;917;-87
2022/01/14 00:37:09;;;;;;;;;;;21.30;49.60;;;;;;688848;28;873;-93
2022/01/14 00:37:30;;;;;;;;;;;21.30;49.60;;;;;;688719;28;862;-85
2022/01/14 00:37:50;;;;;;;;;;;21.30;49.60;;;;;;688826;28;1951;-96
2022/01/14 00:38:12;;;;;;;;;;;21.30;49.60;;;;;;689309;28;833;-91
2022/01/14 00:38:33;;;;;;;;;;;21.30;49.60;;;;;;688795;28;871;-93
2022/01/14 00:38:53;;;;;;;;;;;21.30;49.60;;;;;;689317;28;864;-92
2022/01/14 00:39:14;;;;;;;;;;;21.30;49.60;;;;;;688649;28;851;-93
2022/01/14 00:39:35;;;;;;;;;;;21.30;49.60;;;;;;688686;28;933;-87
2022/01/14 00:39:55;;;;;;;;;;;21.30;49.60;;;;;;689484;28;814;-83
2022/01/14 00:40:16;;;;;;;;;;;21.30;49.60;;;;;;689173;28;1154;-96
2022/01/14 00:40:36;;;;;;;;;;;21.30;49.60;;;;;;689093;28;866;-95
2022/01/14 00:40:57;;;;;;;;;;;21.30;49.60;;;;;;688940;28;810;-94
2022/01/14 00:41:18;;;;;;;;;;;21.30;49.60;;;;;;688987;28;901;-96
2022/01/14 00:41:39;;;;;;;;;;;21.30;49.60;;;;;;688927;28;849;-94
2022/01/14 00:41:59;;;;;;;;;;;21.30;49.60;;;;;;689195;28;982;-92
2022/01/14 00:42:20;;;;;;;;;;;21.30;49.60;;;;;;688832;28;792;-94
2022/01/14 00:42:40;;;;;;;;;;;21.30;49.50;;;;;;686017;28;1418;-96
2022/01/14 00:43:01;;;;;;;;;;;21.30;49.50;;;;;;686779;28;953;-94
2022/01/14 00:43:21;;;;;;;;;;;21.30;49.50;;;;;;687327;28;826;-94
2022/01/14 00:43:43;;;;;;;;;;;21.30;49.50;;;;;;688274;28;886;-96
2022/01/14 00:45:10;;;;;;;;;;;21.30;49.50;;;;;;691932;28;609;-82
2022/01/14 00:45:52;;;;;;;;;;;21.30;49.50;;;;;;712406;22;1484;-96
2022/01/14 00:46:13;;;;;;;;;;;21.30;49.60;;;;;;702513;28;1286;-92
2022/01/14 00:47:04;;;;;;;;;;;21.30;49.40;;;;;;709292;22;1752;-89
2022/01/14 00:47:27;;;;;;;;;;;21.30;49.50;;;;;;695657;28;1329;-81
2022/01/14 00:47:48;;;;;;;;;;;21.30;49.50;;;;;;695868;28;1259;-84
2022/01/14 00:48:09;;;;;;;;;;;21.30;49.60;;;;;;697246;28;901;-93
2022/01/14 00:48:31;;;;;;;;;;;21.30;49.60;;;;;;697346;28;980;-90
2022/01/14 00:48:51;;;;;;;;;;;21.30;49.50;;;;;;697765;28;1027;-89
2022/01/14 00:49:12;;;;;;;;;;;21.30;49.50;;;;;;697659;28;795;-91
2022/01/14 00:49:33;;;;;;;;;;;21.30;49.60;;;;;;697539;28;886;-95
2022/01/14 00:49:53;;;;;;;;;;;21.30;49.50;;;;;;697492;28;886;-96
2022/01/14 00:50:15;;;;;;;;;;;21.30;49.50;;;;;;697906;28;1019;-85
2022/01/14 00:50:40;;;;;;;;;;;21.30;49.50;;;;;;698462;28;1185;-95
2022/01/14 00:51:16;;;;;;;;;;;21.30;49.50;;;;;;701726;28;1104;-96
2022/01/14 00:51:40;;;;;;;;;;;21.30;49.50;;;;;;698319;28;1084;-96
2022/01/14 00:52:03;;;;;;;;;;;21.30;49.50;;;;;;697982;28;893;-93
2022/01/14 00:52:23;;;;;;;;;;;21.30;49.50;;;;;;697024;28;885;-93
2022/01/14 00:52:44;;;;;;;;;;;21.30;49.50;;;;;;696776;28;877;-85
2022/01/14 00:53:05;;;;;;;;;;;21.30;49.60;;;;;;696980;28;822;-89
2022/01/14 00:53:26;;;;;;;;;;;21.30;49.50;;;;;;697030;28;1020;-93
2022/01/14 00:53:46;;;;;;;;;;;21.30;49.50;;;;;;697108;28;782;-94
2022/01/14 00:54:07;;;;;;;;;;;21.30;49.50;;;;;;696581;28;1327;-92
2022/01/14 00:54:28;;;;;;;;;;;21.30;49.50;;;;;;696903;28;868;-92
2022/01/14 00:54:49;;;;;;;;;;;21.30;49.50;;;;;;697024;28;930;-88
2022/01/14 00:55:13;;;;;;;;;;;21.30;49.50;;;;;;696754;28;862;-87
2022/01/14 00:55:55;;;;;;;;;;;21.30;49.50;;;;;;696777;28;838;-94
2022/01/14 00:56:30;;;;;;;;;;;21.30;49.60;;;;;;696896;28;825;-92
2022/01/14 00:57:15;;;;;;;;;;;21.30;49.50;;;;;;697180;28;806;-84
2022/01/14 00:59:34;;;;;;;;;;;21.30;49.60;;;;;;696876;28;672;-79
2022/01/14 00:59:55;;;;;;;;;;;21.30;49.60;;;;;;697017;28;878;-83
2022/01/14 01:00:17;;;;;;;;;;;21.30;49.50;;;;;;696456;28;1561;-94
2022/01/14 01:00:37;;;;;;;;;;;21.30;49.60;;;;;;693904;28;1216;-95
2022/01/14 01:00:58;;;;;;;;;;;21.30;49.60;;;;;;696059;28;1625;-95
2022/01/14 01:01:18;;;;;;;;;;;21.30;49.60;;;;;;696877;28;791;-94
2022/01/14 01:01:39;;;;;;;;;;;21.30;49.50;;;;;;697065;28;856;-79
2022/01/14 01:02:01;;;;;;;;;;;21.30;49.60;;;;;;696640;28;1255;-82
2022/01/14 01:02:22;;;;;;;;;;;21.30;49.60;;;;;;696872;28;1505;-95
2022/01/14 01:02:43;;;;;;;;;;;21.30;49.50;;;;;;696914;28;858;-92
2022/01/14 01:03:03;;;;;;;;;;;21.30;49.60;;;;;;697096;28;818;-94
2022/01/14 01:03:24;;;;;;;;;;;21.30;49.60;;;;;;697097;28;917;-93
2022/01/14 01:03:44;;;;;;;;;;;21.30;49.60;;;;;;696220;28;1221;-79
2022/01/14 01:04:05;;;;;;;;;;;21.30;49.70;;;;;;696593;28;874;-86
2022/01/14 01:04:30;;;;;;;;;;;21.30;49.60;;;;;;694036;28;1132;-94
2022/01/14 01:04:50;;;;;;;;;;;21.30;49.60;;;;;;694216;28;868;-93
2022/01/14 01:05:13;;;;;;;;;;;21.30;49.70;;;;;;693918;28;933;-94
2022/01/14 01:05:33;;;;;;;;;;;21.20;49.60;;;;;;694067;28;909;-86
2022/01/14 01:05:54;;;;;;;;;;;21.20;49.60;;;;;;693515;28;1565;-85
2022/01/14 01:06:14;;;;;;;;;;;21.20;49.60;;;;;;694947;28;1521;-88
2022/01/14 01:06:35;;;;;;;;;;;21.20;49.70;;;;;;699439;28;1605;-92
2022/01/14 01:06:56;;;;;;;;;;;21.30;49.70;;;;;;696897;28;1333;-89
2022/01/14 01:07:18;;;;;;;;;;;21.20;49.70;;;;;;697018;28;857;-94
2022/01/14 01:07:43;;;;;;;;;;;21.30;49.80;;;;;;697422;28;857;-83
2022/01/14 01:08:10;;;;;;;;;;;21.20;49.70;;;;;;699835;28;834;-93
2022/01/14 01:08:46;;;;;;;;;;;21.20;49.70;;;;;;696616;28;989;-93
2022/01/14 01:09:11;;;;;;;;;;;21.20;49.70;;;;;;697056;28;907;-82
2022/01/14 01:09:32;;;;;;;;;;;21.20;49.70;;;;;;696700;28;1328;-81
2022/01/14 01:09:56;;;;;;;;;;;21.20;49.80;;;;;;696838;28;873;-82
2022/01/14 01:10:17;;;;;;;;;;;21.20;49.70;;;;;;696712;28;837;-80
2022/01/14 01:10:49;;;;;;;;;;;21.20;49.70;;;;;;696802;28;842;-84
2022/01/14 01:11:11;;;;;;;;;;;21.20;49.60;;;;;;696886;28;825;-92
2022/01/14 01:11:35;;;;;;;;;;;21.20;49.70;;;;;;702155;28;1116;-93
2022/01/14 01:12:35;;;;;;;;;;;21.20;49.80;;;;;;699618;28;639;-93
2022/01/14 01:13:47;;;;;;;;;;;21.20;49.80;;;;;;693822;28;1003;-81
2022/01/14 01:14:15;;;;;;;;;;;21.20;49.80;;;;;;693814;28;925;-89
2022/01/14 01:15:14;;;;;;;;;;;21.20;49.80;;;;;;693773;28;1028;-92
2022/01/14 01:15:27;;;;;;;;;;;21.20;49.80;;;;;;694520;28;1136;-79
2022/01/14 01:15:49;;;;;;;;;;;21.20;49.90;;;;;;696676;28;881;-89
2022/01/14 01:16:10;;;;;;;;;;;21.20;49.90;;;;;;696760;28;1042;-92
2022/01/14 01:16:30;;;;;;;;;;;21.20;51.00;;;;;;696330;28;947;-90
2022/01/14 01:16:51;;;;;;;;;;;21.20;49.90;;;;;;693742;28;1654;-84
2022/01/14 01:17:12;;;;;;;;;;;21.20;49.90;;;;;;693656;28;828;-79
2022/01/14 01:17:33;;;;;;;;;;;21.20;50.00;;;;;;691122;28;873;-89
2022/01/14 01:17:54;;;;;;;;;;;21.20;50.00;;;;;;692073;28;1910;-91
2022/01/14 01:18:14;;;;;;;;;;;21.20;50.00;;;;;;693748;28;1768;-87
2022/01/14 01:18:35;;;;;;;;;;;21.20;50.00;;;;;;695952;28;1715;-91
2022/01/14 01:18:59;;;;;;;;;;;21.20;49.90;;;;;;694023;28;866;-94
2022/01/14 01:19:19;;;;;;;;;;;21.10;49.90;;;;;;693448;28;1216;-95
2022/01/14 01:19:41;;;;;;;;;;;21.20;51.10;;;;;;694046;28;834;-84
2022/01/14 01:20:17;;;;;;;;;;;21.20;50.00;;;;;;697499;28;1473;-87
2022/01/14 01:20:41;;;;;;;;;;;21.10;49.90;;;;;;693961;28;1474;-95
2022/01/14 01:21:02;;;;;;;;;;;21.10;49.90;;;;;;694130;28;826;-95
2022/01/14 01:22:08;;;;;;;;;;;21.10;50.00;;;;;;696679;28;1601;-94
2022/01/14 01:22:28;;;;;;;;;;;21.20;50.10;;;;;;696678;28;1331;-95
2022/01/14 01:23:04;;;;;;;;;;;21.10;50.00;;;;;;693775;28;1393;-83
2022/01/14 01:23:25;;;;;;;;;;;21.10;50.00;;;;;;693933;28;1408;-92
2022/01/14 01:23:48;;;;;;;;;;;21.20;50.00;;;;;;693921;28;1374;-93
2022/01/14 01:24:10;;;;;;;;;;;21.20;50.00;;;;;;688248;28;1577;-93
2022/01/14 01:24:30;;;;;;;;;;;21.20;50.10;;;;;;688528;28;791;-94
2022/01/14 01:24:51;;;;;;;;;;;21.20;50.10;;;;;;688446;28;898;-92
2022/01/14 01:25:13;;;;;;;;;;;21.10;50.00;;;;;;689255;28;823;-91
2022/01/14 01:25:40;;;;;;;;;;;21.20;50.10;;;;;;690140;28;846;-80
2022/01/14 01:26:10;;;;;;;;;;;21.20;50.20;;;;;;687064;28;1316;-91
2022/01/14 01:26:35;;;;;;;;;;;21.10;50.10;;;;;;688377;28;844;-90
2022/01/14 01:26:56;;;;;;;;;;;21.10;50.10;;;;;;688543;28;827;-79
2022/01/14 01:27:19;;;;;;;;;;;21.10;50.10;;;;;;688346;28;859;-90
2022/01/14 01:27:42;;;;;;;;;;;21.20;50.10;;;;;;690732;28;1335;-94
2022/01/14 01:28:03;;;;;;;;;;;21.10;50.10;;;;;;693841;28;985;-89
2022/01/14 01:28:25;;;;;;;;;;;21.10;50.10;;;;;;694002;28;870;-95
2022/01/14 01:29:02;;;;;;;;;;;21.10;50.20;;;;;;693993;28;817;-92
2022/01/14 01:29:55;;;;;;;;;;;21.10;50.10;;;;;;691399;28;715;-93
2022/01/14 01:30:48;;;;;;;;;;;21.10;50.20;;;;;;688384;28;1409;-87
2022/01/14 01:31:35;;;;;;;;;;;21.10;50.10;;;;;;688694;28;672;-96
2022/01/14 01:31:55;;;;;;;;;;;21.10;50.10;;;;;;688418;28;902;-93
2022/01/14 01:32:16;;;;;;;;;;;21.10;50.10;;;;;;690869;28;1088;-85
2022/01/14 01:32:37;;;;;;;;;;;21.10;50.10;;;;;;691282;28;601;-91
2022/01/14 01:32:58;;;;;;;;;;;21.10;50.10;;;;;;691277;28;1101;-96
2022/01/14 01:33:19;;;;;;;;;;;21.10;50.20;;;;;;691207;28;925;-96
2022/01/14 01:33:40;;;;;;;;;;;21.10;50.10;;;;;;691258;28;893;-95
2022/01/14 01:34:10;;;;;;;;;;;21.10;50.20;;;;;;691223;28;866;-92
2022/01/14 01:34:31;;;;;;;;;;;21.10;50.20;;;;;;691162;28;1230;-95
2022/01/14 01:34:51;;;;;;;;;;;21.10;50.20;;;;;;693820;28;858;-81
2022/01/14 01:35:13;;;;;;;;;;;21.10;50.20;;;;;;693976;28;791;-92
2022/01/14 01:35:34;;;;;;;;;;;21.10;50.20;;;;;;694362;28;877;-94
2022/01/14 01:35:56;;;;;;;;;;;21.10;50.10;;;;;;691026;28;1299;-83
2022/01/14 01:36:17;;;;;;;;;;;21.10;50.20;;;;;;691811;28;920;-86
2022/01/14 01:36:38;;;;;;;;;;;21.10;50.30;;;;;;692405;28;814;-94
2022/01/14 01:37:00;;;;;;;;;;;21.10;50.20;;;;;;692383;28;862;-86
2022/01/14 01:37:20;;;;;;;;;;;21.10;51.30;;;;;;691923;28;897;-94
2022/01/14 01:37:41;;;;;;;;;;;21.10;50.20;;;;;;691581;28;838;-84
2022/01/14 01:38:02;;;;;;;;;;;21.10;50.20;;;;;;691648;28;1906;-89
2022/01/14 01:38:23;;;;;;;;;;;21.10;50.20;;;;;;691394;28;1268;-96
2022/01/14 01:38:43;;;;;;;;;;;21.10;50.30;;;;;;691934;28;1091;-96
2022/01/14 01:39:05;;;;;;;;;;;21.10;50.20;;;;;;694517;28;1199;-94
2022/01/14 01:39:28;;;;;;;;;;;21.10;50.20;;;;;;694071;28;937;-86
2022/01/14 01:39:48;;;;;;;;;;;21.10;50.20;;;;;;691028;28;889;-96
2022/01/14 01:40:09;;;;;;;;;;;21.10;50.20;;;;;;691149;28;803;-96
2022/01/14 01:40:30;;;;;;;;;;;21.10;50.20;;;;;;691387;28;1003;-78
2022/01/14 01:40:51;;;;;;;;;;;21.10;50.30;;;;;;690811;28;1133;-94
2022/01/14 01:41:12;;;;;;;;;;;21.10;50.30;;;;;;690704;28;902;-96
2022/01/14 01:41:36;;;;;;;;;;;21.10;50.30;;;;;;690428;28;1575;-96
2022/01/14 01:41:59;;;;;;;;;;;21.10;50.30;;;;;;691360;28;798;-92
2022/01/14 01:42:26;;;;;;;;;;;21.10;50.30;;;;;;688423;28;1343;-88
2022/01/14 01:42:47;;;;;;;;;;;21.10;50.30;;;;;;688538;28;1293;-92
2022/01/14 01:43:10;;;;;;;;;;;21.10;50.40;;;;;;688071;28;1219;-86
2022/01/14 01:43:30;;;;;;;;;;;21.10;50.30;;;;;;686370;28;1093;-87
2022/01/14 01:43:53;;;;;;;;;;;21.10;50.20;;;;;;686197;28;810;-90
2022/01/14 01:44:15;;;;;;;;;;;21.00;50.20;;;;;;687965;28;849;-93
2022/01/14 01:44:40;;;;;;;;;;;21.00;50.30;;;;;;691722;28;854;-85
2022/01/14 01:45:06;;;;;;;;;;;21.10;50.40;;;;;;692946;28;916;-92
2022/01/14 01:45:27;;;;;;;;;;;21.10;50.40;;;;;;694828;28;897;-85
2022/01/14 01:45:50;;;;;;;;;;;21.00;50.30;;;;;;694843;28;875;-96
2022/01/14 01:46:11;;;;;;;;;;;21.10;50.40;;;;;;694568;28;1223;-78
2022/01/14 01:46:31;;;;;;;;;;;21.10;50.40;;;;;;692830;28;1069;-93
2022/01/14 01:46:53;;;;;;;;;;;21.10;50.40;;;;;;691517;28;881;-95
2022/01/14 01:47:13;;;;;;;;;;;21.10;50.30;;;;;;692885;28;1100;-96
2022/01/14 01:47:34;;;;;;;;;;;21.10;50.30;;;;;;692345;28;845;-89
2022/01/14 01:47:57;;;;;;;;;;;21.10;50.30;;;;;;692132;28;1052;-81
2022/01/14 01:48:18;;;;;;;;;;;21.00;50.30;;;;;;693756;28;1703;-96
2022/01/14 01:48:48;;;;;;;;;;;21.10;50.30;;;;;;693959;28;842;-80
2022/01/14 01:49:09;;;;;;;;;;;21.10;50.40;;;;;;696637;28;1283;-82
2022/01/14 01:49:31;;;;;;;;;;;21.10;50.30;;;;;;695819;28;873;-86
2022/01/14 01:49:53;;;;;;;;;;;21.00;50.30;;;;;;694867;28;942;-83
2022/01/14 01:50:15;;;;;;;;;;;21.10;50.30;;;;;;693445;28;866;-79
2022/01/14 01:50:36;;;;;;;;;;;21.00;50.30;;;;;;693734;28;877;-80
2022/01/14 01:50:58;;;;;;;;;;;21.00;50.30;;;;;;693512;28;865;-82
2022/01/14 01:51:19;;;;;;;;;;;21.00;50.20;;;;;;694663;28;1060;-79
2022/01/14 01:51:41;;;;;;;;;;;21.00;50.30;;;;;;694791;28;1139;-80
2022/01/14 01:52:01;;;;;;;;;;;21.00;50.30;;;;;;689943;28;1044;-79
2022/01/14 01:52:22;;;;;;;;;;;21.00;50.40;;;;;;691524;28;831;-79
2022/01/14 01:52:42;;;;;;;;;;;21.00;50.30;;;;;;691406;28;806;-78
2022/01/14 01:53:04;;;;;;;;;;;21.00;50.30;;;;;;692317;28;906;-77
2022/01/14 01:53:24;;;;;;;;;;;21.00;50.30;;;;;;692283;28;1035;-77
2022/01/14 01:53:46;;;;;;;;;;;21.00;50.30;;;;;;691617;28;1110;-78
2022/01/14 01:54:07;;;;;;;;;;;21.00;50.30;;;;;;693477;28;1016;-79
2022/01/14 01:54:28;;;;;;;;;;;21.00;50.30;;;;;;691222;28;1503;-77
2022/01/14 01:54:48;;;;;;;;;;;21.00;50.40;;;;;;691874;28;1314;-83
2022/01/14 01:55:09;;;;;;;;;;;21.00;50.40;;;;;;692095;28;1220;-78
2022/01/14 01:55:30;;;;;;;;;;;21.00;50.30;;;;;;692127;28;864;-78
2022/01/14 01:55:51;;;;;;;;;;;21.00;50.30;;;;;;689297;28;831;-82
2022/01/14 01:56:11;;;;;;;;;;;21.00;50.30;;;;;;691088;28;992;-79
2022/01/14 01:56:32;;;;;;;;;;;21.00;50.30;;;;;;690854;28;1473;-78
2022/01/14 01:56:53;;;;;;;;;;;21.00;50.40;;;;;;691885;28;1044;-80
2022/01/14 01:57:13;;;;;;;;;;;21.00;50.40;;;;;;693659;28;1119;-77
2022/01/14 01:57:54;;;;;;;;;;;21.00;50.50;;;;;;722407;22;1870;-78
2022/01/14 01:58:15;;;;;;;;;;;21.00;50.40;;;;;;699523;28;1351;-79
2022/01/14 01:58:35;;;;;;;;;;;21.00;50.30;;;;;;697220;28;1601;-78
2022/01/14 01:58:56;;;;;;;;;;;21.00;50.30;;;;;;694627;28;1355;-78
2022/01/14 01:59:21;;;;;;;;;;;21.00;50.50;;;;;;693496;28;1653;-81
2022/01/14 02:00:15;;;;;;;;;;;21.00;50.50;;;;;;694498;28;861;-77
2022/01/14 02:00:36;;;;;;;;;;;21.00;50.50;;;;;;697475;28;1166;-80
2022/01/14 02:00:57;;;;;;;;;;;21.00;50.50;;;;;;696812;28;1067;-79
2022/01/14 02:01:17;;;;;;;;;;;21.00;50.50;;;;;;695835;28;1228;-78
2022/01/14 02:01:39;;;;;;;;;;;21.00;50.50;;;;;;697391;28;961;-91
2022/01/14 02:02:00;;;;;;;;;;;21.00;50.40;;;;;;697675;28;821;-80
2022/01/14 02:02:21;;;;;;;;;;;21.00;50.50;;;;;;697586;28;1165;-78
2022/01/14 02:02:41;;;;;;;;;;;21.00;50.50;;;;;;696791;28;1578;-78
2022/01/14 02:03:02;;;;;;;;;;;21.00;50.50;;;;;;696471;28;893;-78
2022/01/14 02:03:23;;;;;;;;;;;21.00;50.50;;;;;;699109;28;932;-78
2022/01/14 02:03:44;;;;;;;;;;;21.00;50.50;;;;;;700409;28;825;-77
2022/01/14 02:04:04;;;;;;;;;;;21.00;50.50;;;;;;699697;28;921;-78
2022/01/14 02:04:25;;;;;;;;;;;21.00;50.50;;;;;;700392;28;901;-78
2022/01/14 02:04:46;;;;;;;;;;;21.00;50.50;;;;;;699326;28;988;-78
2022/01/14 02:05:07;;;;;;;;;;;21.00;50.50;;;;;;699264;28;995;-79
2022/01/14 02:05:28;;;;;;;;;;;21.00;50.60;;;;;;700002;28;1036;-78
2022/01/14 02:05:49;;;;;;;;;;;21.00;50.50;;;;;;699729;28;979;-78
2022/01/14 02:06:09;;;;;;;;;;;21.00;50.50;;;;;;699931;28;1032;-79
2022/01/14 02:06:30;;;;;;;;;;;21.00;50.50;;;;;;700641;28;1257;-79
2022/01/14 02:06:52;;;;;;;;;;;20.90;50.40;;;;;;700656;28;1039;-80
2022/01/14 02:07:13;;;;;;;;;;;20.90;50.40;;;;;;700507;28;1035;-81
2022/01/14 02:07:34;;;;;;;;;;;21.00;50.50;;;;;;699530;28;841;-78
2022/01/14 02:07:55;;;;;;;;;;;21.00;50.50;;;;;;700549;28;1003;-78
2022/01/14 02:08:16;;;;;;;;;;;21.00;50.50;;;;;;699743;28;1325;-78
2022/01/14 02:08:36;;;;;;;;;;;21.00;50.50;;;;;;697846;28;1210;-78
2022/01/14 02:08:57;;;;;;;;;;;21.00;50.40;;;;;;697847;28;885;-76
2022/01/14 02:09:17;;;;;;;;;;;20.90;50.30;;;;;;697701;28;924;-78
2022/01/14 02:09:38;;;;;;;;;;;21.00;50.40;;;;;;697041;28;747;-79
2022/01/14 02:09:59;;;;;;;;;;;21.00;50.40;;;;;;697666;28;1051;-78
2022/01/14 02:10:21;;;;;;;;;;;21.00;50.40;;;;;;698131;28;1129;-78
2022/01/14 02:10:42;;;;;;;;;;;21.00;50.50;;;;;;700651;28;900;-81
2022/01/14 02:11:03;;;;;;;;;;;21.00;50.40;;;;;;700516;28;1099;-79
2022/01/14 02:11:24;;;;;;;;;;;20.90;50.40;;;;;;700038;28;1056;-78
2022/01/14 02:11:45;;;;;;;;;;;20.90;50.40;;;;;;699969;28;964;-82
2022/01/14 02:12:09;;;;;;;;;;;20.90;50.40;;;;;;700098;28;1016;-94
2022/01/14 02:13:22;;;;;;;;;;;20.90;50.40;;;;;;806325;22;1795;-78
2022/01/14 02:13:43;;;;;;;;;;;20.90;50.40;;;;;;696117;28;1734;-79
2022/01/14 02:14:13;;;;;;;;;;;20.90;50.50;;;;;;693701;28;857;-79
2022/01/14 02:15:25;;;;;;;;;;;20.90;50.40;;;;;;694548;28;889;-92
2022/01/14 02:16:17;;;;;;;;;;;20.90;50.30;;;;;;697192;28;881;-95
2022/01/14 02:17:11;;;;;;;;;;;21.00;50.30;;;;;;699742;28;858;-96
2022/01/14 02:18:02;;;;;;;;;;;21.00;50.30;;;;;;697733;28;911;-87
2022/01/14 02:18:29;;;;;;;;;;;20.90;50.20;;;;;;695661;28;1214;-94
2022/01/14 02:19:29;;;;;;;;;;;21.00;50.10;;;;;;696752;28;719;-79
2022/01/14 02:22:15;;;;;;;;;;;21.00;50.70;;;;;;694034;28;605;-87
2022/01/14 02:22:42;;;;;;;;;;;21.00;50.60;;;;;;693797;28;853;-86
2022/01/14 02:23:05;;;;;;;;;;;21.00;50.60;;;;;;693911;28;861;-88
2022/01/14 02:23:27;;;;;;;;;;;21.00;50.70;;;;;;693950;28;924;-86
2022/01/14 02:24:07;;;;;;;;;;;21.00;50.70;;;;;;693938;28;901;-91
2022/01/14 02:24:57;;;;;;;;;;;21.00;50.70;;;;;;693996;28;798;-91
2022/01/14 02:25:28;;;;;;;;;;;21.00;50.60;;;;;;690985;28;1438;-90
2022/01/14 02:25:48;;;;;;;;;;;21.00;50.50;;;;;;691067;28;1225;-92
2022/01/14 02:26:09;;;;;;;;;;;21.00;50.50;;;;;;691099;28;826;-92
2022/01/14 02:26:30;;;;;;;;;;;21.00;50.40;;;;;;691069;28;842;-85
2022/01/14 02:26:52;;;;;;;;;;;21.00;50.40;;;;;;691222;28;859;-90
2022/01/14 02:27:12;;;;;;;;;;;21.00;50.30;;;;;;690999;28;1269;-93
2022/01/14 02:27:35;;;;;;;;;;;21.00;50.40;;;;;;691165;28;877;-92
2022/01/14 02:28:05;;;;;;;;;;;21.00;50.30;;;;;;691205;28;1068;-90
2022/01/14 02:28:26;;;;;;;;;;;21.00;50.20;;;;;;690456;28;973;-93
2022/01/14 02:28:47;;;;;;;;;;;21.00;50.20;;;;;;691181;28;783;-89
2022/01/14 02:29:07;;;;;;;;;;;21.00;50.20;;;;;;689222;28;1341;-80
2022/01/14 02:29:28;;;;;;;;;;;21.00;50.20;;;;;;689142;28;904;-89
2022/01/14 02:29:49;;;;;;;;;;;21.00;50.10;;;;;;688313;28;878;-88
2022/01/14 02:30:10;;;;;;;;;;;21.00;50.10;;;;;;691112;28;1397;-94
2022/01/14 02:30:31;;;;;;;;;;;21.00;50.10;;;;;;691028;28;1149;-93
2022/01/14 02:30:52;;;;;;;;;;;21.00;50.10;;;;;;691206;28;822;-91
2022/01/14 02:31:13;;;;;;;;;;;21.00;50.10;;;;;;691230;28;807;-94
2022/01/14 02:31:33;;;;;;;;;;;21.00;50.00;;;;;;691224;28;842;-90
2022/01/14 02:31:54;;;;;;;;;;;21.00;50.00;;;;;;690543;28;1210;-92
2022/01/14 02:32:14;;;;;;;;;;;21.10;50.10;;;;;;688710;28;874;-82
2022/01/14 02:32:35;;;;;;;;;;;21.00;50.10;;;;;;691135;28;862;-89
2022/01/14 02:32:56;;;;;;;;;;;21.10;50.10;;;;;;691273;28;755;-94
2022/01/14 02:33:18;;;;;;;;;;;21.10;50.10;;;;;;691230;28;834;-93
2022/01/14 02:33:38;;;;;;;;;;;21.00;50.00;;;;;;691585;28;922;-86
2022/01/14 02:33:59;;;;;;;;;;;21.00;50.00;;;;;;694208;28;846;-91
2022/01/14 02:34:20;;;;;;;;;;;21.00;49.90;;;;;;694252;28;802;-94
2022/01/14 02:34:40;;;;;;;;;;;21.10;50.00;;;;;;693954;28;828;-95
2022/01/14 02:35:01;;;;;;;;;;;21.00;49.90;;;;;;694065;28;811;-95
2022/01/14 02:35:22;;;;;;;;;;;21.10;49.90;;;;;;691217;28;1319;-92
2022/01/14 02:35:44;;;;;;;;;;;21.10;49.90;;;;;;691063;28;1428;-96
2022/01/14 02:36:04;;;;;;;;;;;21.10;49.90;;;;;;691184;28;776;-96
2022/01/14 02:36:25;;;;;;;;;;;21.10;49.90;;;;;;691372;28;1138;-90
2022/01/14 02:36:47;;;;;;;;;;;21.10;49.90;;;;;;691206;28;783;-96
2022/01/14 02:37:07;;;;;;;;;;;21.10;49.90;;;;;;691147;28;940;-94
2022/01/14 02:37:28;;;;;;;;;;;21.10;49.90;;;;;;692034;28;937;-90
2022/01/14 02:37:49;;;;;;;;;;;21.10;49.90;;;;;;693662;28;1335;-95
2022/01/14 02:38:10;;;;;;;;;;;21.10;49.80;;;;;;693941;28;1898;-94
2022/01/14 02:38:31;;;;;;;;;;;21.10;49.80;;;;;;691083;28;967;-94
2022/01/14 02:38:51;;;;;;;;;;;21.00;49.80;;;;;;688398;28;1261;-94
2022/01/14 02:39:13;;;;;;;;;;;21.10;49.90;;;;;;688564;28;783;-95
2022/01/14 02:39:33;;;;;;;;;;;21.00;49.80;;;;;;687884;28;839;-90
2022/01/14 02:39:54;;;;;;;;;;;21.10;49.90;;;;;;685861;28;827;-95
2022/01/14 02:40:14;;;;;;;;;;;21.10;49.90;;;;;;686180;28;823;-95
2022/01/14 02:40:35;;;;;;;;;;;21.00;49.80;;;;;;688794;28;866;-91
2022/01/14 02:40:57;;;;;;;;;;;21.00;49.80;;;;;;691214;28;965;-95
2022/01/14 02:41:18;;;;;;;;;;;21.10;49.90;;;;;;691581;28;790;-93
2022/01/14 02:41:40;;;;;;;;;;;21.10;49.80;;;;;;694120;28;1005;-96